createdAt,value
2022-09-11T00:00:03.651Z,8.42
2022-09-11T00:01:17.117Z,8.34
2022-09-11T00:02:19.327Z,8.37
2022-09-11T00:03:24.646Z,8.38
2022-09-11T00:04:27.583Z,8.35
2022-09-11T00:05:31.283Z,8.36
2022-09-11T00:06:34.670Z,8.41
2022-09-11T00:07:41.706Z,8.40
2022-09-11T00:08:48.662Z,8.37
2022-09-11T00:09:50.949Z,8.37
2022-09-11T00:10:57.243Z,8.41
2022-09-11T00:12:01.959Z,8.31
2022-09-11T00:13:07.507Z,8.36
2022-09-11T00:14:15.171Z,8.28
2022-09-11T00:15:20.240Z,8.16
2022-09-11T00:16:29.140Z,8.22
2022-09-11T00:17:32.264Z,8.22
2022-09-11T00:18:37.183Z,8.21
2022-09-11T00:19:42.900Z,8.26
2022-09-11T00:20:51.234Z,8.21
2022-09-11T00:21:57.829Z,8.19
2022-09-11T00:23:05.272Z,8.17
2022-09-11T00:24:14.044Z,8.20
2022-09-11T00:25:16.613Z,8.16
2022-09-11T00:26:20.952Z,8.12
2022-09-11T00:27:22.991Z,8.10
2022-09-11T00:28:26.059Z,8.11
2022-09-11T00:29:32.791Z,8.05
2022-09-11T00:30:36.854Z,8.03
2022-09-11T00:31:44.091Z,8.03
2022-09-11T00:32:50.151Z,8.02
2022-09-11T00:33:53.147Z,7.97
2022-09-11T00:34:55.714Z,7.95
2022-09-11T00:36:08.319Z,7.99
2022-09-11T00:37:11.447Z,7.90
2022-09-11T00:38:17.257Z,7.91
2022-09-11T00:39:24.245Z,7.83
2022-09-11T00:40:27.752Z,7.79
2022-09-11T00:41:36.567Z,7.78
2022-09-11T00:42:38.683Z,7.83
2022-09-11T00:43:55.622Z,7.82
2022-09-11T00:45:04.481Z,7.84
2022-09-11T00:46:07.902Z,7.77
2022-09-11T00:47:13.351Z,7.82
2022-09-11T00:48:20.496Z,7.75
2022-09-11T00:49:42.483Z,7.78
2022-09-11T00:50:48.743Z,7.71
2022-09-11T00:51:59.762Z,7.74
2022-09-11T00:53:11.663Z,7.70
2022-09-11T00:54:22.628Z,7.64
2022-09-11T00:55:29.320Z,7.62
2022-09-11T00:56:36.475Z,7.65
2022-09-11T00:58:26.223Z,7.58
2022-09-11T00:59:31.407Z,7.61
2022-09-11T01:00:35.570Z,7.60
2022-09-11T01:01:37.671Z,7.64
2022-09-11T01:02:43.192Z,7.62
2022-09-11T01:03:47.511Z,7.58
2022-09-11T01:04:51.299Z,7.56
2022-09-11T01:05:54.910Z,7.47
2022-09-11T01:07:08.128Z,7.45
2022-09-11T01:08:10.799Z,7.45
2022-09-11T01:09:16.207Z,7.43
2022-09-11T01:10:19.387Z,7.46
2022-09-11T01:11:41.932Z,7.47
2022-09-11T01:13:23.239Z,7.38
2022-09-11T01:14:32.453Z,7.44
2022-09-11T01:15:54.017Z,7.39
2022-09-11T01:17:26.259Z,7.41
2022-09-11T01:18:43.076Z,7.50
2022-09-11T01:20:06.569Z,7.46
2022-09-11T01:21:35.811Z,7.45
2022-09-11T01:22:42.482Z,7.44
2022-09-11T01:24:09.572Z,7.35
2022-09-11T01:25:38.294Z,7.32
2022-09-11T01:27:05.036Z,7.31
2022-09-11T01:28:15.950Z,7.37
2022-09-11T01:29:25.208Z,7.38
2022-09-11T01:30:36.111Z,7.31
2022-09-11T01:31:49.596Z,7.34
2022-09-11T01:33:25.246Z,7.35
2022-09-11T01:34:45.620Z,7.31
2022-09-11T01:35:56.520Z,7.32
2022-09-11T01:37:08.471Z,7.26
2022-09-11T01:38:14.947Z,7.29
2022-09-11T01:39:22.632Z,7.28
2022-09-11T01:40:31.672Z,7.30
2022-09-11T01:42:02.848Z,7.28
2022-09-11T01:44:04.540Z,7.27
2022-09-11T01:45:07.889Z,7.26
2022-09-11T01:46:18.548Z,7.29
2022-09-11T01:47:24.402Z,7.25
2022-09-11T01:48:39.165Z,7.25
2022-09-11T01:49:51.806Z,7.20
2022-09-11T01:51:01.138Z,7.16
2022-09-11T01:52:09.330Z,7.16
2022-09-11T01:53:17.382Z,7.14
2022-09-11T01:54:26.285Z,7.09
2022-09-11T01:55:42.987Z,7.04
2022-09-11T01:56:52.681Z,7.04
2022-09-11T01:58:26.486Z,7.01
2022-09-11T01:59:45.929Z,7.04
2022-09-11T02:00:54.180Z,7.04
2022-09-11T02:02:09.973Z,7.04
2022-09-11T02:03:25.378Z,7.06
2022-09-11T02:04:51.911Z,7.02
2022-09-11T02:06:03.684Z,7.04
2022-09-11T02:07:28.360Z,6.97
2022-09-11T02:08:54.759Z,7.00
2022-09-11T02:10:15.705Z,6.97
2022-09-11T02:11:20.764Z,6.96
2022-09-11T02:12:31.280Z,6.97
2022-09-11T02:14:06.716Z,6.94
2022-09-11T02:15:20.356Z,6.92
2022-09-11T02:16:32.873Z,6.90
2022-09-11T02:17:46.644Z,6.92
2022-09-11T02:19:03.791Z,6.85
2022-09-11T02:20:09.323Z,6.86
2022-09-11T02:21:12.026Z,6.86
2022-09-11T02:22:18.731Z,6.82
2022-09-11T02:23:23.565Z,6.83
2022-09-11T02:24:30.093Z,6.82
2022-09-11T02:25:36.147Z,6.80
2022-09-11T02:26:48.539Z,6.83
2022-09-11T02:29:08.626Z,6.87
2022-09-11T02:30:11.705Z,6.78
2022-09-11T02:31:14.753Z,6.79
2022-09-11T02:32:19.529Z,6.78
2022-09-11T02:33:38.875Z,6.78
2022-09-11T02:34:45.531Z,6.77
2022-09-11T02:35:53.266Z,6.80
2022-09-11T02:37:20.661Z,6.81
2022-09-11T02:38:42.890Z,6.75
2022-09-11T02:39:48.747Z,6.77
2022-09-11T02:41:10.654Z,6.76
2022-09-11T02:42:24.696Z,6.83
2022-09-11T02:44:10.080Z,6.83
2022-09-11T02:45:20.106Z,6.82
2022-09-11T02:46:32.543Z,6.79
2022-09-11T02:47:57.416Z,6.77
2022-09-11T02:49:17.149Z,6.80
2022-09-11T02:50:46.698Z,6.80
2022-09-11T02:52:11.820Z,6.77
2022-09-11T02:53:49.685Z,6.77
2022-09-11T02:55:11.820Z,6.79
2022-09-11T02:56:40.721Z,6.79
2022-09-11T02:57:51.831Z,6.83
2022-09-11T02:58:57.243Z,6.88
2022-09-11T03:00:04.079Z,6.91
2022-09-11T03:01:10.498Z,6.88
2022-09-11T03:02:18.415Z,6.93
2022-09-11T03:03:24.352Z,6.90
2022-09-11T03:04:35.679Z,6.95
2022-09-11T03:05:40.374Z,6.97
2022-09-11T03:06:43.311Z,6.97
2022-09-11T03:07:45.544Z,6.98
2022-09-11T03:08:49.166Z,6.94
2022-09-11T03:09:53.004Z,6.98
2022-09-11T03:10:57.884Z,6.96
2022-09-11T03:12:02.334Z,6.99
2022-09-11T03:13:14.992Z,7.00
2022-09-11T03:14:21.708Z,6.98
2022-09-11T03:15:25.070Z,7.03
2022-09-11T03:16:28.871Z,7.00
2022-09-11T03:17:31.620Z,7.03
2022-09-11T03:18:34.353Z,7.03
2022-09-11T03:19:36.433Z,7.04
2022-09-11T03:20:40.307Z,7.09
2022-09-11T03:21:44.188Z,7.03
2022-09-11T03:22:46.254Z,7.11
2022-09-11T03:23:49.725Z,7.12
2022-09-11T03:24:52.270Z,7.18
2022-09-11T03:25:59.020Z,7.20
2022-09-11T03:27:01.471Z,7.20
2022-09-11T03:28:05.375Z,7.23
2022-09-11T03:29:09.439Z,7.22
2022-09-11T03:30:12.059Z,7.23
2022-09-11T03:31:15.582Z,7.23
2022-09-11T03:32:17.715Z,7.26
2022-09-11T03:33:19.970Z,7.29
2022-09-11T03:34:28.070Z,7.34
2022-09-11T03:35:30.037Z,7.31
2022-09-11T03:36:34.746Z,7.32
2022-09-11T03:37:38.844Z,7.25
2022-09-11T03:38:45.575Z,7.31
2022-09-11T03:39:51.387Z,7.27
2022-09-11T03:40:56.742Z,7.29
2022-09-11T03:41:58.918Z,7.28
2022-09-11T03:43:02.941Z,7.32
2022-09-11T03:44:05.702Z,7.41
2022-09-11T03:45:10.058Z,7.38
2022-09-11T03:46:12.000Z,7.51
2022-09-11T03:47:14.811Z,7.50
2022-09-11T03:48:16.880Z,7.55
2022-09-11T03:49:20.851Z,7.61
2022-09-11T03:50:24.871Z,7.55
2022-09-11T03:51:27.287Z,7.64
2022-09-11T03:52:31.277Z,7.61
2022-09-11T03:53:35.031Z,7.70
2022-09-11T03:54:39.906Z,7.66
2022-09-11T03:55:45.627Z,7.71
2022-09-11T03:56:47.671Z,7.80
2022-09-11T03:57:54.850Z,7.85
2022-09-11T03:59:03.015Z,7.88
2022-09-11T04:00:07.873Z,7.92
2022-09-11T04:01:23.333Z,7.93
2022-09-11T04:02:31.434Z,8.06
2022-09-11T04:03:35.010Z,8.12
2022-09-11T04:04:38.297Z,8.52
2022-09-11T04:05:44.593Z,9.42
2022-09-11T04:06:46.893Z,10.12
2022-09-11T04:07:49.122Z,10.16
2022-09-11T04:08:56.157Z,10.71
2022-09-11T04:09:59.860Z,11.21
2022-09-11T04:11:08.259Z,11.75
2022-09-11T04:12:12.979Z,11.92
2022-09-11T04:13:16.859Z,12.57
2022-09-11T04:14:19.509Z,13.41
2022-09-11T04:15:25.209Z,13.72
2022-09-11T04:16:28.083Z,14.14
2022-09-11T04:17:31.043Z,14.39
2022-09-11T04:18:37.431Z,14.99
2022-09-11T04:19:41.192Z,15.36
2022-09-11T04:20:44.759Z,14.82
2022-09-11T04:21:48.469Z,14.90
2022-09-11T04:22:54.455Z,15.44
2022-09-11T04:24:00.058Z,15.97
2022-09-11T04:25:07.124Z,16.46
2022-09-11T04:26:21.498Z,16.30
2022-09-11T04:27:28.921Z,16.30
2022-09-11T04:28:33.168Z,16.69
2022-09-11T04:29:35.249Z,17.55
2022-09-11T04:30:39.878Z,18.31
2022-09-11T04:31:43.531Z,17.96
2022-09-11T04:32:50.527Z,18.63
2022-09-11T04:33:57.378Z,18.93
2022-09-11T04:35:02.810Z,19.04
2022-09-11T04:36:17.628Z,19.40
2022-09-11T04:37:20.464Z,19.61
2022-09-11T04:38:24.072Z,20.11
2022-09-11T04:39:28.030Z,19.93
2022-09-11T04:40:30.040Z,20.47
2022-09-11T04:41:32.393Z,20.71
2022-09-11T04:42:36.567Z,21.39
2022-09-11T04:43:40.508Z,20.10
2022-09-11T04:44:44.185Z,19.95
2022-09-11T04:45:46.393Z,19.97
2022-09-11T04:46:48.748Z,20.59
2022-09-11T04:47:53.113Z,20.79
2022-09-11T04:48:59.433Z,20.43
2022-09-11T04:50:02.659Z,20.39
2022-09-11T04:51:08.041Z,20.34
2022-09-11T04:52:10.557Z,19.89
2022-09-11T04:53:13.982Z,20.04
2022-09-11T04:54:21.378Z,20.25
2022-09-11T04:55:23.955Z,19.81
2022-09-11T04:56:31.566Z,19.89
2022-09-11T04:57:34.012Z,20.71
2022-09-11T04:58:38.233Z,20.73
2022-09-11T04:59:40.195Z,20.49
2022-09-11T05:00:47.765Z,20.93
2022-09-11T05:01:50.425Z,20.94
2022-09-11T05:02:54.984Z,20.86
2022-09-11T05:03:57.563Z,20.46
2022-09-11T05:05:03.020Z,21.16
2022-09-11T05:06:08.806Z,20.07
2022-09-11T05:07:13.763Z,21.07
2022-09-11T05:08:19.129Z,20.65
2022-09-11T05:09:23.073Z,20.35
2022-09-11T05:10:27.413Z,21.19
2022-09-11T05:11:30.400Z,21.47
2022-09-11T05:12:32.621Z,21.92
2022-09-11T05:13:36.609Z,21.93
2022-09-11T05:14:39.751Z,22.17
2022-09-11T05:15:41.779Z,23.34
2022-09-11T05:16:45.143Z,23.00
2022-09-11T05:17:48.622Z,22.68
2022-09-11T05:18:54.246Z,24.13
2022-09-11T05:19:59.070Z,22.98
2022-09-11T05:21:06.486Z,24.18
2022-09-11T05:22:09.177Z,24.13
2022-09-11T05:23:15.066Z,24.69
2022-09-11T05:24:17.652Z,24.68
2022-09-11T05:25:19.740Z,24.01
2022-09-11T05:26:27.125Z,23.38
2022-09-11T05:27:30.199Z,23.41
2022-09-11T05:28:33.796Z,23.84
2022-09-11T05:29:37.124Z,24.16
2022-09-11T05:30:44.989Z,24.17
2022-09-11T05:31:47.950Z,24.48
2022-09-11T05:32:56.390Z,24.94
2022-09-11T05:34:02.171Z,25.45
2022-09-11T05:35:05.458Z,25.55
2022-09-11T05:36:07.849Z,25.99
2022-09-11T05:37:09.979Z,25.53
2022-09-11T05:38:18.804Z,24.49
2022-09-11T05:39:20.903Z,25.68
2022-09-11T05:40:23.389Z,26.41
2022-09-11T05:41:33.437Z,26.07
2022-09-11T05:42:35.470Z,26.62
2022-09-11T05:43:38.830Z,27.16
2022-09-11T05:44:40.907Z,26.69
2022-09-11T05:45:44.375Z,26.57
2022-09-11T05:46:47.201Z,26.22
2022-09-11T05:47:51.381Z,26.04
2022-09-11T05:48:56.231Z,26.31
2022-09-11T05:49:58.352Z,26.52
2022-09-11T05:51:07.161Z,26.61
2022-09-11T05:52:10.585Z,26.60
2022-09-11T05:53:12.664Z,26.50
2022-09-11T05:54:15.343Z,26.38
2022-09-11T05:55:17.378Z,26.68
2022-09-11T05:56:22.625Z,26.72
2022-09-11T05:57:26.564Z,25.56
2022-09-11T05:58:32.566Z,26.54
2022-09-11T05:59:34.888Z,26.99
2022-09-11T06:00:38.385Z,26.85
2022-09-11T06:01:40.647Z,27.58
2022-09-11T06:02:51.061Z,27.78
2022-09-11T06:03:56.267Z,27.11
2022-09-11T06:05:03.116Z,26.85
2022-09-11T06:06:09.628Z,26.07
2022-09-11T06:07:12.716Z,26.88
2022-09-11T06:08:19.728Z,26.25
2022-09-11T06:09:21.929Z,26.67
2022-09-11T06:10:24.295Z,26.68
2022-09-11T06:11:27.112Z,26.63
2022-09-11T06:12:29.490Z,26.55
2022-09-11T06:13:35.913Z,26.13
2022-09-11T06:14:38.279Z,27.03
2022-09-11T06:15:47.091Z,26.02
2022-09-11T06:16:50.159Z,25.05
2022-09-11T06:17:52.254Z,25.43
2022-09-11T06:18:54.399Z,25.17
2022-09-11T06:19:57.223Z,25.05
2022-09-11T06:21:07.341Z,25.03
2022-09-11T06:22:16.326Z,23.22
2022-09-11T06:23:19.842Z,24.07
2022-09-11T06:24:21.890Z,24.13
2022-09-11T06:25:25.438Z,22.91
2022-09-11T06:26:29.583Z,23.80
2022-09-11T06:27:32.405Z,24.12
2022-09-11T06:28:36.011Z,24.31
2022-09-11T06:29:38.487Z,25.23
2022-09-11T06:30:42.173Z,24.38
2022-09-11T06:31:46.109Z,24.34
2022-09-11T06:32:49.195Z,24.05
2022-09-11T06:33:51.745Z,24.11
2022-09-11T06:34:54.680Z,24.09
2022-09-11T06:36:00.943Z,24.53
2022-09-11T06:37:03.238Z,24.17
2022-09-11T06:38:06.705Z,24.14
2022-09-11T06:39:09.056Z,23.87
2022-09-11T06:40:13.423Z,23.58
2022-09-11T06:41:16.897Z,22.98
2022-09-11T06:42:19.457Z,23.65
2022-09-11T06:43:24.652Z,23.75
2022-09-11T06:44:27.565Z,23.29
2022-09-11T06:45:33.928Z,23.56
2022-09-11T06:46:36.270Z,23.38
2022-09-11T06:47:38.925Z,23.62
2022-09-11T06:48:51.240Z,23.36
2022-09-11T06:49:59.302Z,23.83
2022-09-11T06:51:28.405Z,24.34
2022-09-11T06:52:35.558Z,24.20
2022-09-11T06:54:01.131Z,22.10
2022-09-11T06:55:13.551Z,22.12
2022-09-11T06:56:22.428Z,22.07
2022-09-11T06:57:25.631Z,21.48
2022-09-11T06:58:29.473Z,21.80
2022-09-11T06:59:32.336Z,21.89
2022-09-11T07:00:36.799Z,22.02
2022-09-11T07:01:39.862Z,22.14
2022-09-11T07:02:42.610Z,22.02
2022-09-11T07:03:48.858Z,22.55
2022-09-11T07:04:53.389Z,22.40
2022-09-11T07:05:58.031Z,22.54
2022-09-11T07:07:00.097Z,23.11
2022-09-11T07:08:03.333Z,23.72
2022-09-11T07:09:11.945Z,23.43
2022-09-11T07:10:24.224Z,23.88
2022-09-11T07:11:34.548Z,23.51
2022-09-11T07:12:38.971Z,23.55
2022-09-11T07:13:42.089Z,23.73
2022-09-11T07:14:44.234Z,24.35
2022-09-11T07:16:03.795Z,23.92
2022-09-11T07:17:08.862Z,24.13
2022-09-11T07:18:11.593Z,24.22
2022-09-11T07:19:13.838Z,24.21
2022-09-11T07:20:17.747Z,24.38
2022-09-11T07:21:23.186Z,25.12
2022-09-11T07:22:29.815Z,24.78
2022-09-11T07:23:31.975Z,24.11
2022-09-11T07:24:34.155Z,24.42
2022-09-11T07:25:40.822Z,24.14
2022-09-11T07:26:43.113Z,23.98
2022-09-11T07:28:04.700Z,23.78
2022-09-11T07:29:06.773Z,23.86
2022-09-11T07:30:11.944Z,24.27
2022-09-11T07:31:20.910Z,23.97
2022-09-11T07:32:27.194Z,24.77
2022-09-11T07:33:31.344Z,24.51
2022-09-11T07:34:38.336Z,24.78
2022-09-11T07:35:43.724Z,24.41
2022-09-11T07:36:51.848Z,25.13
2022-09-11T07:37:58.682Z,24.20
2022-09-11T07:39:03.667Z,24.37
2022-09-11T07:40:32.406Z,23.84
2022-09-11T07:41:36.097Z,24.77
2022-09-11T07:42:44.608Z,24.40
2022-09-11T07:43:48.385Z,23.90
2022-09-11T07:44:50.883Z,23.60
2022-09-11T07:45:54.093Z,23.44
2022-09-11T07:46:56.101Z,22.81
2022-09-11T07:48:00.376Z,23.14
2022-09-11T07:49:03.120Z,22.96
2022-09-11T07:50:06.409Z,23.59
2022-09-11T07:51:14.068Z,23.99
2022-09-11T07:52:18.627Z,24.23
2022-09-11T07:53:26.373Z,24.06
2022-09-11T07:54:29.243Z,23.71
2022-09-11T07:55:34.808Z,23.41
2022-09-11T07:56:38.584Z,22.80
2022-09-11T07:57:42.720Z,22.62
2022-09-11T07:58:46.151Z,22.59
2022-09-11T07:59:48.320Z,22.43
2022-09-11T08:00:58.335Z,22.15
2022-09-11T08:02:00.540Z,22.12
2022-09-11T08:03:04.376Z,22.23
2022-09-11T08:04:12.334Z,21.96
2022-09-11T08:05:15.728Z,21.56
2022-09-11T08:06:22.344Z,21.41
2022-09-11T08:07:26.382Z,21.96
2022-09-11T08:08:29.917Z,22.01
2022-09-11T08:09:33.308Z,21.52
2022-09-11T08:10:41.051Z,21.04
2022-09-11T08:11:48.965Z,20.83
2022-09-11T08:12:56.800Z,20.59
2022-09-11T08:14:01.501Z,20.57
2022-09-11T08:15:03.848Z,21.10
2022-09-11T08:16:06.603Z,21.42
2022-09-11T08:17:09.035Z,21.17
2022-09-11T08:18:12.990Z,21.01
2022-09-11T08:19:21.763Z,21.25
2022-09-11T08:20:28.876Z,21.59
2022-09-11T08:21:31.194Z,21.78
2022-09-11T08:22:33.648Z,21.94
2022-09-11T08:23:38.538Z,22.27
2022-09-11T08:24:41.517Z,22.24
2022-09-11T08:25:45.361Z,22.22
2022-09-11T08:26:49.287Z,21.85
2022-09-11T08:27:53.329Z,22.59
2022-09-11T08:29:00.247Z,22.43
2022-09-11T08:30:06.186Z,22.13
2022-09-11T08:31:08.443Z,22.68
2022-09-11T08:32:10.952Z,22.76
2022-09-11T08:33:14.276Z,22.65
2022-09-11T08:34:17.414Z,22.06
2022-09-11T08:35:20.523Z,21.60
2022-09-11T08:36:23.883Z,21.29
2022-09-11T08:37:27.404Z,20.43
2022-09-11T08:38:30.277Z,20.41
2022-09-11T08:39:32.495Z,20.14
2022-09-11T08:40:39.855Z,19.63
2022-09-11T08:41:53.691Z,19.95
2022-09-11T08:43:02.525Z,20.10
2022-09-11T08:44:27.346Z,19.43
2022-09-11T08:45:38.442Z,20.25
2022-09-11T08:46:48.562Z,20.74
2022-09-11T08:47:57.475Z,20.11
2022-09-11T08:49:30.530Z,19.51
2022-09-11T08:50:41.648Z,19.91
2022-09-11T08:51:49.055Z,19.67
2022-09-11T08:52:55.550Z,19.58
2022-09-11T08:54:02.566Z,19.63
2022-09-11T08:55:06.712Z,19.65
2022-09-11T08:56:15.651Z,19.76
2022-09-11T08:57:41.022Z,19.86
2022-09-11T08:58:58.201Z,20.05
2022-09-11T09:00:07.689Z,19.73
2022-09-11T09:01:54.509Z,19.76
2022-09-11T09:03:09.186Z,19.97
2022-09-11T09:04:35.816Z,19.83
2022-09-11T09:06:08.791Z,20.05
2022-09-11T09:08:08.922Z,20.34
2022-09-11T09:09:13.719Z,20.50
2022-09-11T09:10:47.535Z,20.55
2022-09-11T09:12:21.041Z,20.65
2022-09-11T09:13:42.823Z,20.36
2022-09-11T09:15:00.049Z,20.24
2022-09-11T09:16:30.046Z,20.07
2022-09-11T09:17:43.527Z,20.29
2022-09-11T09:18:51.032Z,20.60
2022-09-11T09:20:06.259Z,20.21
2022-09-11T09:21:20.423Z,19.95
2022-09-11T09:22:54.853Z,20.00
2022-09-11T09:24:03.240Z,20.04
2022-09-11T09:25:11.534Z,20.14
2022-09-11T09:26:17.747Z,19.80
2022-09-11T09:27:30.502Z,19.47
2022-09-11T09:29:00.963Z,19.36
2022-09-11T09:30:07.626Z,19.19
2022-09-11T09:31:15.769Z,19.46
2022-09-11T09:32:30.011Z,19.85
2022-09-11T09:33:38.493Z,19.92
2022-09-11T09:34:46.006Z,19.78
2022-09-11T09:35:48.770Z,19.62
2022-09-11T09:37:18.827Z,19.85
2022-09-11T09:38:26.925Z,19.95
2022-09-11T09:39:32.263Z,19.54
2022-09-11T09:40:58.482Z,19.58
2022-09-11T09:42:08.637Z,19.23
2022-09-11T09:43:41.232Z,18.99
2022-09-11T09:45:21.557Z,19.03
2022-09-11T09:46:35.584Z,18.70
2022-09-11T09:47:44.790Z,18.79
2022-09-11T09:48:46.611Z,18.57
2022-09-11T09:49:48.964Z,18.34
2022-09-11T09:50:51.898Z,18.33
2022-09-11T09:52:04.654Z,18.49
2022-09-11T09:53:33.279Z,18.34
2022-09-11T09:54:36.654Z,18.27
2022-09-11T09:55:40.587Z,18.13
2022-09-11T09:56:49.526Z,18.39
2022-09-11T09:57:51.466Z,18.25
2022-09-11T09:59:12.088Z,18.13
2022-09-11T10:00:19.978Z,18.15
2022-09-11T10:01:40.230Z,17.99
2022-09-11T10:02:49.330Z,18.16
2022-09-11T10:04:25.440Z,18.08
2022-09-11T10:05:34.964Z,18.01
2022-09-11T10:06:37.324Z,18.11
2022-09-11T10:07:57.308Z,18.14
2022-09-11T10:09:03.288Z,18.15
2022-09-11T10:10:06.171Z,18.11
2022-09-11T10:11:12.433Z,18.02
2022-09-11T10:12:24.502Z,17.99
2022-09-11T10:13:29.427Z,17.96
2022-09-11T10:14:51.071Z,17.98
2022-09-11T10:16:18.397Z,17.75
2022-09-11T10:17:23.008Z,17.87
2022-09-11T10:18:42.867Z,17.83
2022-09-11T10:19:45.210Z,17.95
2022-09-11T10:20:47.539Z,18.01
2022-09-11T10:21:49.546Z,17.93
2022-09-11T10:22:53.835Z,17.84
2022-09-11T10:24:01.152Z,17.88
2022-09-11T10:25:16.450Z,17.66
2022-09-11T10:26:29.926Z,17.63
2022-09-11T10:27:43.629Z,17.82
2022-09-11T10:28:47.009Z,17.98
2022-09-11T10:29:50.956Z,17.98
2022-09-11T10:30:55.968Z,18.02
2022-09-11T10:32:02.565Z,18.12
2022-09-11T10:33:16.466Z,17.99
2022-09-11T10:34:24.863Z,18.07
2022-09-11T10:35:29.610Z,18.11
2022-09-11T10:36:32.950Z,18.01
2022-09-11T10:37:35.027Z,17.93
2022-09-11T10:38:59.069Z,17.86
2022-09-11T10:40:19.250Z,17.86
2022-09-11T10:41:25.210Z,17.85
2022-09-11T10:42:29.482Z,17.92
2022-09-11T10:43:52.571Z,18.18
2022-09-11T10:45:11.319Z,17.96
2022-09-11T10:46:19.178Z,18.12
2022-09-11T10:47:25.186Z,18.29
2022-09-11T10:48:27.212Z,18.21
2022-09-11T10:49:34.605Z,18.35
2022-09-11T10:50:36.704Z,18.21
2022-09-11T10:51:45.539Z,18.06
2022-09-11T10:52:58.366Z,18.17
2022-09-11T10:54:09.644Z,18.20
2022-09-11T10:55:15.759Z,18.21
2022-09-11T10:56:17.992Z,18.25
2022-09-11T10:57:30.757Z,18.27
2022-09-11T10:58:38.446Z,18.28
2022-09-11T11:00:21.596Z,18.21
2022-09-11T11:01:23.789Z,18.33
2022-09-11T11:02:36.428Z,18.45
2022-09-11T11:03:41.096Z,18.36
2022-09-11T11:04:43.221Z,18.23
2022-09-11T11:06:04.194Z,18.26
2022-09-11T11:07:40.826Z,18.19
2022-09-11T11:09:14.422Z,18.33
2022-09-11T11:10:24.967Z,18.27
2022-09-11T11:11:56.308Z,18.57
2022-09-11T11:13:28.983Z,18.42
2022-09-11T11:15:04.402Z,18.68
2022-09-11T11:16:18.831Z,18.40
2022-09-11T11:17:33.310Z,18.44
2022-09-11T11:18:44.340Z,18.49
2022-09-11T11:20:09.399Z,18.48
2022-09-11T11:21:19.417Z,18.49
2022-09-11T11:22:28.727Z,18.06
2022-09-11T11:23:51.250Z,18.33
2022-09-11T11:25:12.424Z,18.30
2022-09-11T11:26:36.989Z,18.57
2022-09-11T11:28:16.312Z,18.74
2022-09-11T11:29:18.972Z,18.52
2022-09-11T11:30:38.488Z,18.31
2022-09-11T11:31:49.795Z,18.60
2022-09-11T11:33:09.926Z,18.37
2022-09-11T11:34:27.789Z,18.49
2022-09-11T11:36:02.609Z,18.45
2022-09-11T11:37:20.208Z,18.37
2022-09-11T11:38:35.805Z,18.43
2022-09-11T11:39:52.848Z,18.34
2022-09-11T11:41:03.273Z,18.26
2022-09-11T11:42:30.255Z,18.31
2022-09-11T11:43:34.708Z,18.36
2022-09-11T11:45:00.495Z,18.40
2022-09-11T11:46:15.803Z,18.47
2022-09-11T11:47:26.549Z,18.36
2022-09-11T11:48:51.804Z,18.47
2022-09-11T11:50:18.570Z,18.22
2022-09-11T11:51:27.322Z,18.39
2022-09-11T11:52:32.004Z,18.26
2022-09-11T11:53:48.555Z,18.28
2022-09-11T11:55:20.913Z,18.22
2022-09-11T11:56:47.054Z,18.23
2022-09-11T11:58:10.996Z,18.25
2022-09-11T11:59:25.233Z,18.40
2022-09-11T12:00:29.354Z,18.38
2022-09-11T12:01:48.177Z,18.41
2022-09-11T12:02:51.119Z,18.40
2022-09-11T12:04:14.088Z,18.15
2022-09-11T12:05:20.746Z,18.21
2022-09-11T12:06:22.720Z,18.19
2022-09-11T12:07:28.585Z,18.04
2022-09-11T12:08:30.651Z,18.19
2022-09-11T12:09:35.371Z,18.27
2022-09-11T12:10:40.250Z,18.35
2022-09-11T12:11:45.836Z,18.44
2022-09-11T12:12:53.903Z,18.21
2022-09-11T12:14:02.557Z,18.38
2022-09-11T12:15:10.389Z,18.45
2022-09-11T12:16:28.702Z,18.33
2022-09-11T12:17:33.482Z,18.13
2022-09-11T12:18:35.516Z,18.20
2022-09-11T12:19:37.515Z,18.30
2022-09-11T12:20:45.241Z,18.20
2022-09-11T12:21:53.053Z,18.21
2022-09-11T12:22:55.198Z,18.20
2022-09-11T12:23:57.160Z,18.08
2022-09-11T12:24:59.421Z,18.12
2022-09-11T12:26:16.843Z,18.15
2022-09-11T12:27:34.433Z,17.99
2022-09-11T12:28:38.069Z,18.05
2022-09-11T12:30:09.981Z,17.93
2022-09-11T12:31:14.827Z,18.05
2022-09-11T12:32:16.841Z,18.12
2022-09-11T12:33:47.790Z,18.15
2022-09-11T12:34:50.069Z,18.21
2022-09-11T12:35:53.763Z,18.02
2022-09-11T12:37:01.888Z,18.19
2022-09-11T12:38:06.827Z,18.13
2022-09-11T12:39:34.798Z,18.13
2022-09-11T12:40:49.925Z,18.15
2022-09-11T12:41:54.111Z,18.09
2022-09-11T12:43:00.001Z,18.10
2022-09-11T12:44:04.149Z,18.02
2022-09-11T12:45:30.663Z,18.07
2022-09-11T12:46:33.924Z,17.97
2022-09-11T12:47:42.796Z,18.14
2022-09-11T12:49:00.458Z,18.07
2022-09-11T12:50:11.510Z,18.07
2022-09-11T12:51:26.137Z,18.06
2022-09-11T12:52:40.586Z,18.00
2022-09-11T12:53:47.031Z,18.18
2022-09-11T12:54:51.446Z,18.08
2022-09-11T12:55:58.340Z,18.00
2022-09-11T12:57:36.421Z,17.91
2022-09-11T12:58:45.008Z,18.04
2022-09-11T12:59:54.906Z,18.16
2022-09-11T13:01:25.198Z,18.05
2022-09-11T13:02:42.228Z,17.98
2022-09-11T13:04:12.099Z,17.99
2022-09-11T13:05:27.538Z,17.99
2022-09-11T13:06:58.821Z,17.87
2022-09-11T13:08:18.669Z,17.82
2022-09-11T13:09:22.759Z,17.97
2022-09-11T13:10:40.657Z,17.99
2022-09-11T13:11:55.009Z,18.01
2022-09-11T13:13:37.626Z,17.75
2022-09-11T13:14:48.071Z,17.86
2022-09-11T13:15:52.597Z,17.86
2022-09-11T13:17:05.011Z,17.86
2022-09-11T13:18:31.169Z,17.89
2022-09-11T13:19:36.028Z,17.80
2022-09-11T13:20:38.219Z,17.67
2022-09-11T13:21:42.072Z,17.70
2022-09-11T13:22:47.555Z,17.78
2022-09-11T13:23:51.097Z,17.81
2022-09-11T13:25:07.287Z,17.90
2022-09-11T13:26:18.620Z,17.86
2022-09-11T13:27:28.845Z,18.01
2022-09-11T13:28:39.524Z,17.95
2022-09-11T13:29:43.026Z,17.99
2022-09-11T13:30:57.362Z,17.89
2022-09-11T13:32:05.462Z,17.88
2022-09-11T13:33:11.246Z,17.99
2022-09-11T13:34:18.920Z,17.97
2022-09-11T13:35:27.195Z,17.74
2022-09-11T13:36:34.735Z,17.69
2022-09-11T13:37:58.081Z,17.63
2022-09-11T13:39:03.005Z,17.58
2022-09-11T13:40:08.257Z,17.44
2022-09-11T13:41:20.285Z,17.41
2022-09-11T13:42:26.237Z,17.38
2022-09-11T13:43:50.574Z,17.34
2022-09-11T13:44:58.366Z,17.45
2022-09-11T13:46:16.574Z,17.46
2022-09-11T13:47:21.738Z,17.49
2022-09-11T13:48:24.181Z,17.48
2022-09-11T13:49:39.117Z,17.41
2022-09-11T13:50:41.515Z,17.38
2022-09-11T13:51:46.041Z,17.41
2022-09-11T13:52:49.563Z,17.27
2022-09-11T13:54:15.126Z,17.37
2022-09-11T13:55:23.681Z,17.30
2022-09-11T13:57:04.943Z,17.26
2022-09-11T13:58:24.485Z,17.28
2022-09-11T13:59:48.311Z,17.25
2022-09-11T14:00:52.808Z,17.15
2022-09-11T14:02:00.994Z,17.17
2022-09-11T14:03:03.080Z,17.22
2022-09-11T14:04:11.040Z,17.14
2022-09-11T14:05:28.587Z,17.13
2022-09-11T14:06:31.495Z,17.22
2022-09-11T14:07:41.499Z,17.17
2022-09-11T14:08:50.635Z,17.10
2022-09-11T14:10:01.411Z,17.10
2022-09-11T14:11:13.457Z,17.12
2022-09-11T14:12:15.751Z,17.09
2022-09-11T14:13:20.527Z,17.15
2022-09-11T14:14:28.351Z,17.19
2022-09-11T14:15:40.388Z,17.16
2022-09-11T14:16:52.018Z,17.09
2022-09-11T14:17:54.192Z,17.03
2022-09-11T14:19:02.746Z,17.02
2022-09-11T14:20:20.628Z,17.08
2022-09-11T14:21:26.726Z,17.14
2022-09-11T14:22:34.133Z,17.01
2022-09-11T14:23:43.731Z,16.90
2022-09-11T14:25:22.487Z,16.91
2022-09-11T14:26:39.971Z,16.78
2022-09-11T14:27:43.850Z,16.89
2022-09-11T14:29:00.338Z,16.90
2022-09-11T14:30:23.099Z,16.86
2022-09-11T14:31:39.053Z,16.85
2022-09-11T14:32:41.324Z,16.86
2022-09-11T14:33:43.809Z,16.79
2022-09-11T14:34:45.915Z,16.84
2022-09-11T14:35:50.562Z,16.75
2022-09-11T14:36:54.284Z,16.69
2022-09-11T14:37:58.057Z,16.69
2022-09-11T14:39:00.645Z,16.57
2022-09-11T14:40:08.304Z,16.59
2022-09-11T14:41:10.787Z,16.64
2022-09-11T14:42:26.197Z,16.58
2022-09-11T14:43:33.745Z,16.69
2022-09-11T14:44:39.525Z,16.59
2022-09-11T14:45:41.578Z,16.57
2022-09-11T14:46:44.221Z,16.52
2022-09-11T14:47:46.958Z,16.49
2022-09-11T14:48:49.345Z,16.46
2022-09-11T14:49:56.287Z,16.50
2022-09-11T14:50:58.924Z,16.45
2022-09-11T14:52:01.238Z,16.39
2022-09-11T14:53:03.435Z,16.46
2022-09-11T14:54:06.312Z,16.42
2022-09-11T14:55:14.924Z,16.43
2022-09-11T14:56:17.055Z,16.44
2022-09-11T14:57:23.074Z,16.48
2022-09-11T14:58:26.288Z,16.43
2022-09-11T14:59:30.482Z,16.38
2022-09-11T15:00:32.923Z,16.41
2022-09-11T15:01:37.936Z,16.38
2022-09-11T15:02:40.045Z,16.36